SWG291 CYQR-MMUN
Flight info
| Callsign | SWG291 |
|---|---|
| Flight time | N/A |
| Altitude | 37000 |
| Route | MOT SALEM MCI LIT LEV A770 KEHLI UL209 BETAS VOMAR VOMAR1A |
| Aircraft | B38M/M-SDE1FGHILORVWXY/HB1 |
Departure
| Time | 2026-04-16 16:54 |
|---|---|
| Airport | Regina International Airport (CYQR) |
Arrival
| Time | N/A |
|---|---|
| Airport | Cancún International Airport (MMUN) |
| Time | Latitude | Longitude | Altitude | Speed | Heading |
|---|---|---|---|---|---|
| 2026-04-16 16:27 | 50.43325 | -104.65716 | 1901 ft | 0 kts | 48° |
| 2026-04-16 16:43 | 50.43323 | -104.65719 | 1906 ft | 1 kts | 48° |
| 2026-04-16 16:43 | 50.43311 | -104.65740 | 1892 ft | 3 kts | 48° |
| 2026-04-16 16:43 | 50.43298 | -104.65763 | 1895 ft | 3 kts | 48° |
| 2026-04-16 16:43 | 50.43284 | -104.65787 | 1892 ft | 3 kts | 48° |
| 2026-04-16 16:44 | 50.43271 | -104.65810 | 1902 ft | 3 kts | 48° |
| 2026-04-16 16:44 | 50.43265 | -104.65821 | 1899 ft | 0 kts | 48° |
| 2026-04-16 16:47 | 50.43268 | -104.65817 | 1897 ft | 2 kts | 37° |
| 2026-04-16 16:47 | 50.43294 | -104.65829 | 1904 ft | 6 kts | 315° |
| 2026-04-16 16:47 | 50.43322 | -104.65884 | 1892 ft | 8 kts | 316° |
| 2026-04-16 16:48 | 50.43376 | -104.65961 | 1906 ft | 12 kts | 318° |
| 2026-04-16 16:48 | 50.43433 | -104.66040 | 1904 ft | 10 kts | 318° |
| 2026-04-16 16:48 | 50.43480 | -104.66107 | 1899 ft | 8 kts | 318° |
| 2026-04-16 16:48 | 50.43519 | -104.66162 | 1899 ft | 7 kts | 318° |
| 2026-04-16 16:49 | 50.43560 | -104.66220 | 1896 ft | 10 kts | 318° |
| 2026-04-16 16:49 | 50.43621 | -104.66305 | 1892 ft | 12 kts | 317° |
| 2026-04-16 16:49 | 50.43679 | -104.66388 | 1898 ft | 10 kts | 318° |
| 2026-04-16 16:49 | 50.43729 | -104.66458 | 1901 ft | 9 kts | 318° |
| 2026-04-16 16:50 | 50.43780 | -104.66529 | 1898 ft | 11 kts | 318° |
| 2026-04-16 16:50 | 50.43843 | -104.66618 | 1900 ft | 13 kts | 318° |
| 2026-04-16 16:50 | 50.43907 | -104.66708 | 1892 ft | 12 kts | 318° |
| 2026-04-16 16:50 | 50.43965 | -104.66790 | 1907 ft | 10 kts | 318° |
| 2026-04-16 16:51 | 50.44014 | -104.66861 | 1900 ft | 9 kts | 314° |
| 2026-04-16 16:51 | 50.44040 | -104.66939 | 1895 ft | 7 kts | 281° |
| 2026-04-16 16:51 | 50.44044 | -104.67011 | 1902 ft | 6 kts | 275° |
| 2026-04-16 16:51 | 50.44047 | -104.67072 | 1907 ft | 6 kts | 273° |
| 2026-04-16 16:52 | 50.44045 | -104.67128 | 1904 ft | 6 kts | 257° |
| 2026-04-16 16:52 | 50.44012 | -104.67198 | 1904 ft | 8 kts | 206° |
| 2026-04-16 16:52 | 50.43978 | -104.67180 | 1895 ft | 2 kts | 138° |
| 2026-04-16 16:52 | 50.43976 | -104.67177 | 1900 ft | 0 kts | 138° |
| 2026-04-16 16:53 | 50.43950 | -104.67139 | 1895 ft | 28 kts | 137° |
| 2026-04-16 16:53 | 50.43604 | -104.66647 | 1895 ft | 104 kts | 138° |
| 2026-04-16 16:54 | 50.42900 | -104.65651 | 1910 ft | 166 kts | 135° |
| 2026-04-16 16:54 | 50.41978 | -104.64276 | 2360 ft | 189 kts | 133° |
| 2026-04-16 16:54 | 50.41042 | -104.62815 | 3537 ft | 193 kts | 140° |
| 2026-04-16 16:54 | 50.40049 | -104.61318 | 4230 ft | 205 kts | 140° |
| 2026-04-16 16:55 | 50.39009 | -104.59618 | 4762 ft | 228 kts | 136° |
| 2026-04-16 16:55 | 50.37867 | -104.57701 | 5280 ft | 253 kts | 136° |
| 2026-04-16 16:55 | 50.36615 | -104.55611 | 5973 ft | 271 kts | 136° |
| 2026-04-16 16:55 | 50.35286 | -104.53401 | 6711 ft | 287 kts | 136° |
| 2026-04-16 16:56 | 50.33888 | -104.51082 | 7553 ft | 297 kts | 136° |
| 2026-04-16 16:56 | 50.32455 | -104.48712 | 8498 ft | 301 kts | 136° |
| 2026-04-16 16:56 | 50.31012 | -104.46325 | 9504 ft | 303 kts | 137° |
| 2026-04-16 16:56 | 50.29549 | -104.43911 | 10326 ft | 309 kts | 137° |
| 2026-04-16 16:57 | 50.28025 | -104.41399 | 10797 ft | 328 kts | 137° |
| 2026-04-16 16:57 | 50.24749 | -104.36005 | 11882 ft | 354 kts | 137° |
| 2026-04-16 16:57 | 50.23035 | -104.33188 | 12556 ft | 361 kts | 137° |
| 2026-04-16 16:58 | 50.21294 | -104.30331 | 13334 ft | 365 kts | 137° |
| 2026-04-16 16:58 | 50.19534 | -104.27445 | 14047 ft | 369 kts | 137° |
| 2026-04-16 16:58 | 50.17751 | -104.24527 | 14713 ft | 373 kts | 138° |
| 2026-04-16 16:58 | 50.15975 | -104.21621 | 15349 ft | 377 kts | 138° |
| 2026-04-16 16:59 | 50.14154 | -104.18646 | 16003 ft | 381 kts | 139° |
| 2026-04-16 16:59 | 50.12320 | -104.15652 | 16619 ft | 384 kts | 139° |
| 2026-04-16 16:59 | 50.10463 | -104.12625 | 17231 ft | 388 kts | 140° |
| 2026-04-16 16:59 | 50.08585 | -104.09566 | 17836 ft | 392 kts | 140° |
| 2026-04-16 17:00 | 50.06691 | -104.06487 | 18398 ft | 395 kts | 140° |
| 2026-04-16 17:00 | 50.04776 | -104.03375 | 18918 ft | 399 kts | 140° |
| 2026-04-16 17:00 | 50.02849 | -104.00248 | 19452 ft | 401 kts | 141° |
| 2026-04-16 17:00 | 50.00908 | -103.97104 | 19954 ft | 405 kts | 141° |
| 2026-04-16 17:01 | 49.98950 | -103.93935 | 20454 ft | 407 kts | 141° |
| 2026-04-16 17:01 | 49.96979 | -103.90749 | 20948 ft | 410 kts | 141° |
| 2026-04-16 17:01 | 49.94995 | -103.87544 | 21454 ft | 413 kts | 141° |
| 2026-04-16 17:01 | 49.92997 | -103.84324 | 21950 ft | 415 kts | 141° |
| 2026-04-16 17:02 | 49.90987 | -103.81089 | 22420 ft | 418 kts | 141° |
| 2026-04-16 17:02 | 49.88988 | -103.77874 | 22887 ft | 421 kts | 141° |
| 2026-04-16 17:02 | 49.86948 | -103.74597 | 23355 ft | 423 kts | 141° |
| 2026-04-16 17:02 | 49.84894 | -103.71303 | 23763 ft | 426 kts | 142° |
| 2026-04-16 17:03 | 49.82827 | -103.67992 | 24128 ft | 429 kts | 142° |
| 2026-04-16 17:03 | 49.80747 | -103.64664 | 24512 ft | 431 kts | 141° |
| 2026-04-16 17:03 | 49.78652 | -103.61317 | 24889 ft | 433 kts | 141° |
| 2026-04-16 17:03 | 49.76550 | -103.57965 | 25274 ft | 436 kts | 141° |
| 2026-04-16 17:04 | 49.74434 | -103.54593 | 25637 ft | 438 kts | 141° |
| 2026-04-16 17:04 | 49.72305 | -103.51205 | 25997 ft | 440 kts | 141° |
| 2026-04-16 17:04 | 49.70162 | -103.47801 | 26361 ft | 443 kts | 141° |
| 2026-04-16 17:04 | 49.68013 | -103.44390 | 26724 ft | 445 kts | 141° |
| 2026-04-16 17:05 | 49.65844 | -103.40953 | 27062 ft | 447 kts | 141° |
| 2026-04-16 17:05 | 49.63669 | -103.37510 | 27407 ft | 450 kts | 141° |
| 2026-04-16 17:05 | 49.61480 | -103.34051 | 27740 ft | 452 kts | 141° |
| 2026-04-16 17:05 | 49.59279 | -103.30578 | 28083 ft | 454 kts | 141° |
| 2026-04-16 17:06 | 49.57064 | -103.27087 | 28400 ft | 456 kts | 141° |
| 2026-04-16 17:06 | 49.54842 | -103.23589 | 28703 ft | 458 kts | 141° |
| 2026-04-16 17:06 | 49.52606 | -103.20075 | 29020 ft | 460 kts | 141° |
| 2026-04-16 17:06 | 49.50359 | -103.16547 | 29324 ft | 462 kts | 141° |
| 2026-04-16 17:07 | 49.48099 | -103.13007 | 29607 ft | 465 kts | 141° |
| 2026-04-16 17:07 | 49.45830 | -103.09455 | 29886 ft | 467 kts | 141° |
| 2026-04-16 17:07 | 49.43548 | -103.05887 | 30140 ft | 469 kts | 141° |
| 2026-04-16 17:07 | 49.41263 | -103.02320 | 30379 ft | 470 kts | 141° |
| 2026-04-16 17:08 | 49.38964 | -102.98738 | 30607 ft | 472 kts | 141° |
| 2026-04-16 17:08 | 49.36655 | -102.95144 | 30843 ft | 474 kts | 141° |
| 2026-04-16 17:08 | 49.34336 | -102.91542 | 31081 ft | 475 kts | 141° |
| 2026-04-16 17:08 | 49.32006 | -102.87925 | 31316 ft | 477 kts | 141° |
| 2026-04-16 17:09 | 49.29669 | -102.84303 | 31540 ft | 479 kts | 141° |
| 2026-04-16 17:09 | 49.27324 | -102.80674 | 31772 ft | 480 kts | 141° |
| 2026-04-16 17:09 | 49.24967 | -102.77033 | 32010 ft | 481 kts | 141° |
| 2026-04-16 17:09 | 49.22610 | -102.73396 | 32296 ft | 481 kts | 141° |
| 2026-04-16 17:10 | 49.20255 | -102.69768 | 32610 ft | 480 kts | 141° |
| 2026-04-16 17:10 | 49.17927 | -102.66185 | 32942 ft | 480 kts | 141° |
| 2026-04-16 17:10 | 49.15577 | -102.62576 | 33233 ft | 479 kts | 141° |
| 2026-04-16 17:10 | 49.13232 | -102.58977 | 33547 ft | 478 kts | 141° |
| 2026-04-16 17:11 | 49.10891 | -102.55391 | 33850 ft | 477 kts | 141° |
| 2026-04-16 17:11 | 49.08552 | -102.51813 | 34100 ft | 476 kts | 141° |
| 2026-04-16 17:11 | 49.06215 | -102.48243 | 34338 ft | 475 kts | 141° |
| 2026-04-16 17:11 | 49.03872 | -102.44669 | 34569 ft | 475 kts | 141° |
| 2026-04-16 17:12 | 49.01538 | -102.41114 | 34792 ft | 474 kts | 141° |
| 2026-04-16 17:12 | 48.99205 | -102.37565 | 35004 ft | 474 kts | 141° |
| 2026-04-16 17:12 | 48.96869 | -102.34016 | 35220 ft | 474 kts | 141° |
| 2026-04-16 17:12 | 48.94536 | -102.30477 | 35436 ft | 473 kts | 141° |
| 2026-04-16 17:13 | 48.92205 | -102.26946 | 35630 ft | 473 kts | 141° |
| 2026-04-16 17:13 | 48.89870 | -102.23412 | 35832 ft | 473 kts | 141° |